createdAt,value
2018-05-02T00:00:01.317Z,0
2018-05-02T00:00:27.463Z,0
2018-05-02T00:00:53.633Z,0
2018-05-02T00:01:19.791Z,0
2018-05-02T00:01:45.938Z,0
2018-05-02T00:02:12.064Z,0
2018-05-02T00:02:38.207Z,0
2018-05-02T00:03:04.344Z,0
2018-05-02T00:03:30.486Z,0
2018-05-02T00:03:56.623Z,0
2018-05-02T00:04:22.781Z,0
2018-05-02T00:04:48.924Z,0
2018-05-02T00:05:15.085Z,0
2018-05-02T00:05:41.223Z,0
2018-05-02T00:06:07.359Z,0
2018-05-02T00:06:33.529Z,0
2018-05-02T00:06:59.664Z,0
2018-05-02T00:07:25.817Z,0
2018-05-02T00:07:51.928Z,0
2018-05-02T00:08:18.077Z,0
2018-05-02T00:08:44.216Z,0
2018-05-02T00:09:10.343Z,0
2018-05-02T00:09:36.516Z,0
2018-05-02T00:10:02.671Z,0
2018-05-02T00:10:28.836Z,0
2018-05-02T00:10:54.976Z,0
2018-05-02T00:11:21.117Z,0
2018-05-02T00:11:47.249Z,0
2018-05-02T00:12:13.388Z,0
2018-05-02T00:12:39.526Z,0
2018-05-02T00:13:05.684Z,0
2018-05-02T00:13:31.823Z,0
2018-05-02T00:13:57.962Z,0
2018-05-02T00:14:24.122Z,0
2018-05-02T00:14:50.257Z,0
2018-05-02T00:15:16.388Z,0
2018-05-02T00:15:42.522Z,0
2018-05-02T00:16:08.664Z,0
2018-05-02T00:16:34.797Z,0
2018-05-02T00:17:00.937Z,0
2018-05-02T00:17:27.069Z,0
2018-05-02T00:17:53.205Z,0
2018-05-02T00:18:19.380Z,0
2018-05-02T00:18:45.520Z,0
2018-05-02T00:19:11.659Z,0
2018-05-02T00:19:37.798Z,0
2018-05-02T00:20:03.932Z,0
2018-05-02T00:20:30.071Z,0
2018-05-02T00:20:56.215Z,0
2018-05-02T00:21:22.368Z,0
2018-05-02T00:21:48.527Z,0
2018-05-02T00:22:14.671Z,0
2018-05-02T00:22:40.810Z,0
2018-05-02T00:23:06.946Z,0
2018-05-02T00:23:33.092Z,0
2018-05-02T00:23:59.247Z,0
2018-05-02T00:24:25.413Z,0
2018-05-02T00:24:51.577Z,0
2018-05-02T00:25:17.713Z,0
2018-05-02T00:25:43.853Z,0
2018-05-02T00:26:09.989Z,0
2018-05-02T00:26:36.150Z,0
2018-05-02T00:27:02.286Z,0
2018-05-02T00:27:28.477Z,0
2018-05-02T00:27:54.675Z,0
2018-05-02T00:28:20.765Z,0
2018-05-02T00:28:46.900Z,0
2018-05-02T00:29:13.065Z,0
2018-05-02T00:29:39.224Z,0
2018-05-02T00:30:05.365Z,0
2018-05-02T00:30:31.529Z,0
2018-05-02T00:30:57.689Z,0
2018-05-02T00:31:23.886Z,0
2018-05-02T00:31:49.973Z,0
2018-05-02T00:32:16.100Z,0
2018-05-02T00:32:42.249Z,0
2018-05-02T00:33:08.414Z,0
2018-05-02T00:33:34.544Z,0
2018-05-02T00:34:00.747Z,0
2018-05-02T00:34:26.813Z,0
2018-05-02T00:34:52.953Z,0
2018-05-02T00:35:19.084Z,0
2018-05-02T00:35:45.218Z,0
2018-05-02T00:36:11.379Z,0
2018-05-02T00:36:37.536Z,0
2018-05-02T00:37:03.683Z,0
2018-05-02T00:37:29.843Z,0
2018-05-02T00:37:55.978Z,0
2018-05-02T00:38:22.116Z,0
2018-05-02T00:38:48.256Z,0
2018-05-02T00:39:14.412Z,0
2018-05-02T00:39:40.570Z,0
2018-05-02T00:40:06.707Z,0
2018-05-02T00:40:32.842Z,0
2018-05-02T00:40:58.999Z,0
2018-05-02T00:41:25.146Z,0
2018-05-02T00:41:51.306Z,0
2018-05-02T00:42:17.461Z,0
2018-05-02T00:42:43.600Z,0
2018-05-02T00:43:09.733Z,0
2018-05-02T00:43:35.868Z,0
2018-05-02T00:44:02.033Z,0
2018-05-02T00:44:28.232Z,0
2018-05-02T00:44:54.383Z,0
2018-05-02T00:45:20.539Z,0
2018-05-02T00:45:46.679Z,0
2018-05-02T00:46:12.815Z,0
2018-05-02T00:46:38.952Z,0
2018-05-02T00:47:05.088Z,0
2018-05-02T00:47:31.230Z,0
2018-05-02T00:47:57.361Z,0
2018-05-02T00:48:23.499Z,0
2018-05-02T00:48:49.639Z,0
2018-05-02T00:49:15.778Z,0
2018-05-02T00:49:41.918Z,0
2018-05-02T00:50:08.052Z,0
2018-05-02T00:50:34.210Z,0
2018-05-02T00:51:00.433Z,0
2018-05-02T00:51:26.506Z,0
2018-05-02T00:51:52.670Z,0
2018-05-02T00:52:18.825Z,0
2018-05-02T00:52:44.965Z,0
2018-05-02T00:53:11.096Z,0
2018-05-02T00:53:37.253Z,0
2018-05-02T00:54:03.407Z,0
2018-05-02T00:54:29.587Z,0
2018-05-02T00:54:55.761Z,0
2018-05-02T00:55:21.868Z,0
2018-05-02T00:55:47.997Z,0
2018-05-02T00:56:14.141Z,0
2018-05-02T00:56:40.300Z,0
2018-05-02T00:57:06.463Z,0
2018-05-02T00:57:32.596Z,0
2018-05-02T00:57:58.731Z,0
2018-05-02T00:58:24.866Z,0
2018-05-02T00:58:51.004Z,0
2018-05-02T00:59:17.176Z,0
2018-05-02T00:59:43.316Z,0
2018-05-02T01:00:09.441Z,0
2018-05-02T01:00:35.602Z,0
2018-05-02T01:01:01.737Z,0
2018-05-02T01:01:27.875Z,0
2018-05-02T01:01:54.010Z,0
2018-05-02T01:02:20.151Z,0
2018-05-02T01:02:46.312Z,0
2018-05-02T01:03:12.443Z,0
2018-05-02T01:03:38.592Z,0
2018-05-02T01:04:04.773Z,0
2018-05-02T01:04:30.905Z,0
2018-05-02T01:04:57.079Z,0
2018-05-02T01:05:23.207Z,0
2018-05-02T01:05:49.349Z,0
2018-05-02T01:06:15.543Z,0
2018-05-02T01:06:41.674Z,0
2018-05-02T01:07:07.815Z,0
2018-05-02T01:07:33.945Z,0
2018-05-02T01:08:00.088Z,0
2018-05-02T01:08:26.228Z,0
2018-05-02T01:08:52.393Z,0
2018-05-02T01:09:18.552Z,0
2018-05-02T01:09:44.689Z,0
2018-05-02T01:10:10.844Z,0
2018-05-02T01:10:37.000Z,0
2018-05-02T01:11:03.133Z,0
2018-05-02T01:11:29.291Z,0
2018-05-02T01:11:55.453Z,0
2018-05-02T01:12:21.591Z,0
2018-05-02T01:12:47.731Z,0
2018-05-02T01:13:13.864Z,0
2018-05-02T01:13:40.034Z,0
2018-05-02T01:14:06.188Z,0
2018-05-02T01:14:32.332Z,0
2018-05-02T01:14:58.490Z,0
2018-05-02T01:15:24.626Z,0
2018-05-02T01:15:50.761Z,0
2018-05-02T01:16:16.906Z,0
2018-05-02T01:16:43.042Z,0
2018-05-02T01:17:09.181Z,0
2018-05-02T01:17:35.315Z,0
2018-05-02T01:18:01.444Z,0
2018-05-02T01:18:27.600Z,0
2018-05-02T01:18:53.745Z,0
2018-05-02T01:19:19.880Z,0
2018-05-02T01:19:46.018Z,0
2018-05-02T01:20:12.232Z,0
2018-05-02T01:20:38.387Z,0
2018-05-02T01:21:04.521Z,0
2018-05-02T01:21:30.682Z,0
2018-05-02T01:21:56.824Z,0
2018-05-02T01:22:22.993Z,0
2018-05-02T01:22:49.138Z,0
2018-05-02T01:23:15.295Z,0
2018-05-02T01:23:41.430Z,0
2018-05-02T01:24:07.592Z,0
2018-05-02T01:24:33.732Z,0
2018-05-02T01:24:59.862Z,0
2018-05-02T01:25:26.001Z,0
2018-05-02T01:25:52.139Z,0
2018-05-02T01:26:18.270Z,0
2018-05-02T01:26:44.409Z,0
2018-05-02T01:27:10.540Z,0
2018-05-02T01:27:36.697Z,0
2018-05-02T01:28:02.831Z,0
2018-05-02T01:28:28.975Z,0
2018-05-02T01:28:55.114Z,0
2018-05-02T01:29:21.253Z,0
2018-05-02T01:29:47.384Z,0
2018-05-02T01:30:13.546Z,0
2018-05-02T01:30:39.687Z,0
2018-05-02T01:31:05.846Z,0
2018-05-02T01:31:31.987Z,0
2018-05-02T01:31:58.145Z,0
2018-05-02T01:32:24.281Z,0
2018-05-02T01:32:50.420Z,0
2018-05-02T01:33:16.583Z,0
2018-05-02T01:33:42.733Z,0
2018-05-02T01:34:08.875Z,0
2018-05-02T01:34:35.009Z,0
2018-05-02T01:35:01.202Z,0
2018-05-02T01:35:27.342Z,0
2018-05-02T01:35:53.471Z,0
2018-05-02T01:36:19.607Z,0
2018-05-02T01:36:45.739Z,0
2018-05-02T01:37:11.903Z,0
2018-05-02T01:37:38.084Z,0
2018-05-02T01:38:04.225Z,0
2018-05-02T01:38:30.414Z,0
2018-05-02T01:38:56.543Z,0
2018-05-02T01:39:22.704Z,0
2018-05-02T01:39:48.864Z,0
2018-05-02T01:40:15.007Z,0
2018-05-02T01:40:41.140Z,0
2018-05-02T01:41:07.294Z,0
2018-05-02T01:41:33.485Z,0
2018-05-02T01:41:59.624Z,0
2018-05-02T01:42:25.748Z,0
2018-05-02T01:42:51.889Z,0
2018-05-02T01:43:18.029Z,0
2018-05-02T01:43:44.164Z,0
2018-05-02T01:44:10.292Z,0
2018-05-02T01:44:36.428Z,0
2018-05-02T01:45:02.567Z,0
2018-05-02T01:45:28.696Z,0
2018-05-02T01:45:54.863Z,0
2018-05-02T01:46:20.996Z,0
2018-05-02T01:46:47.136Z,0
2018-05-02T01:47:13.287Z,0
2018-05-02T01:47:39.426Z,0
2018-05-02T01:48:05.568Z,0
2018-05-02T01:48:31.704Z,0
2018-05-02T01:48:57.836Z,0
2018-05-02T01:49:23.979Z,0
2018-05-02T01:49:50.109Z,0
2018-05-02T01:50:16.272Z,0
2018-05-02T01:50:42.434Z,0
2018-05-02T01:51:08.569Z,0
2018-05-02T01:51:34.711Z,0
2018-05-02T01:52:00.843Z,0
2018-05-02T01:52:27.009Z,0
2018-05-02T01:52:53.142Z,0
2018-05-02T01:53:19.280Z,0
2018-05-02T01:53:45.419Z,0
2018-05-02T01:54:11.573Z,0
2018-05-02T01:54:37.712Z,0
2018-05-02T01:55:03.851Z,0
2018-05-02T01:55:29.993Z,0
2018-05-02T01:55:56.147Z,0
2018-05-02T01:56:22.268Z,0
2018-05-02T01:56:48.419Z,0
2018-05-02T01:57:14.555Z,0
2018-05-02T01:57:40.694Z,0
2018-05-02T01:58:06.850Z,0
2018-05-02T01:58:32.994Z,0
2018-05-02T01:58:59.132Z,0
2018-05-02T01:59:25.263Z,0
2018-05-02T01:59:51.400Z,0
2018-05-02T02:00:17.559Z,0
2018-05-02T02:00:43.720Z,0
2018-05-02T02:01:09.854Z,0
2018-05-02T02:01:36.000Z,0
2018-05-02T02:02:02.164Z,0
2018-05-02T02:02:28.296Z,0
2018-05-02T02:02:54.434Z,0
2018-05-02T02:03:20.567Z,0
2018-05-02T02:03:46.700Z,0
2018-05-02T02:04:12.860Z,0
2018-05-02T02:04:39.001Z,0
2018-05-02T02:05:05.162Z,0
2018-05-02T02:05:31.351Z,0
2018-05-02T02:05:57.490Z,0
2018-05-02T02:06:23.618Z,0
2018-05-02T02:06:49.785Z,0
2018-05-02T02:07:15.923Z,0
2018-05-02T02:07:42.108Z,0
2018-05-02T02:08:08.246Z,0
2018-05-02T02:08:34.379Z,0
2018-05-02T02:09:00.512Z,0
2018-05-02T02:09:26.656Z,0
2018-05-02T02:09:52.788Z,0
2018-05-02T02:10:18.932Z,0
2018-05-02T02:10:45.063Z,0
2018-05-02T02:11:11.211Z,0
2018-05-02T02:11:37.335Z,0
2018-05-02T02:12:03.477Z,0
2018-05-02T02:12:29.617Z,0
2018-05-02T02:12:55.755Z,0
2018-05-02T02:13:21.887Z,0
2018-05-02T02:13:48.023Z,0
2018-05-02T02:14:14.176Z,0
2018-05-02T02:14:40.309Z,0
2018-05-02T02:15:06.471Z,0
2018-05-02T02:15:32.599Z,0
2018-05-02T02:15:58.742Z,0
2018-05-02T02:16:24.875Z,0
2018-05-02T02:16:51.006Z,0
2018-05-02T02:17:17.165Z,0
2018-05-02T02:17:43.301Z,0
2018-05-02T02:18:09.437Z,0
2018-05-02T02:18:35.566Z,0
2018-05-02T02:19:01.725Z,0
2018-05-02T02:19:27.881Z,0
2018-05-02T02:19:54.041Z,0
2018-05-02T02:20:20.246Z,0
2018-05-02T02:20:46.336Z,0
2018-05-02T02:21:12.462Z,0
2018-05-02T02:21:38.602Z,0
2018-05-02T02:22:04.743Z,0
2018-05-02T02:22:30.922Z,0
2018-05-02T02:22:57.052Z,0
2018-05-02T02:23:23.218Z,0
2018-05-02T02:23:49.385Z,0
2018-05-02T02:24:15.509Z,0
2018-05-02T02:24:41.677Z,0
2018-05-02T02:25:07.810Z,0
2018-05-02T02:25:33.947Z,0
2018-05-02T02:26:00.107Z,0
2018-05-02T02:26:26.273Z,0
2018-05-02T02:26:52.406Z,0
2018-05-02T02:27:18.550Z,0
2018-05-02T02:27:44.686Z,0
2018-05-02T02:28:10.823Z,0
2018-05-02T02:28:36.956Z,0
2018-05-02T02:29:03.127Z,0
2018-05-02T02:29:29.264Z,0
2018-05-02T02:29:55.412Z,0
2018-05-02T02:30:21.605Z,0
2018-05-02T02:30:47.742Z,0
2018-05-02T02:31:13.880Z,0
2018-05-02T02:31:40.010Z,0
2018-05-02T02:32:06.154Z,0
2018-05-02T02:32:32.358Z,0
2018-05-02T02:32:58.528Z,0
2018-05-02T02:33:24.690Z,0
2018-05-02T02:33:50.869Z,0
2018-05-02T02:34:17.028Z,0
2018-05-02T02:34:43.216Z,0
2018-05-02T02:35:09.399Z,0
2018-05-02T02:35:35.562Z,0
2018-05-02T02:36:01.703Z,0
2018-05-02T02:36:27.851Z,0
2018-05-02T02:36:54.046Z,0
2018-05-02T02:37:20.188Z,0
2018-05-02T02:37:46.340Z,0
2018-05-02T02:38:12.478Z,0
2018-05-02T02:38:38.652Z,0
2018-05-02T02:39:04.815Z,0
2018-05-02T02:39:30.972Z,0
2018-05-02T02:39:57.131Z,0
2018-05-02T02:40:23.269Z,0
2018-05-02T02:40:49.401Z,0
2018-05-02T02:41:15.560Z,0
2018-05-02T02:41:41.696Z,0
2018-05-02T02:42:07.853Z,0
2018-05-02T02:42:34.011Z,0
2018-05-02T02:43:00.174Z,0
2018-05-02T02:43:26.303Z,0
2018-05-02T02:43:52.489Z,0
2018-05-02T02:44:18.642Z,0
2018-05-02T02:44:44.809Z,0
2018-05-02T02:45:10.956Z,0
2018-05-02T02:45:37.077Z,0
2018-05-02T02:46:03.243Z,0
2018-05-02T02:46:29.383Z,0
2018-05-02T02:46:55.520Z,0
2018-05-02T02:47:21.689Z,0
2018-05-02T02:47:47.866Z,0
2018-05-02T02:48:14.021Z,0
2018-05-02T02:48:40.187Z,0
2018-05-02T02:49:06.342Z,0
2018-05-02T02:49:32.504Z,0
2018-05-02T02:49:58.643Z,0
2018-05-02T02:50:24.823Z,0
2018-05-02T02:50:50.957Z,0
2018-05-02T02:51:17.094Z,0
2018-05-02T02:51:43.257Z,0
2018-05-02T02:52:09.399Z,0
2018-05-02T02:52:35.578Z,0
2018-05-02T02:53:01.739Z,0
2018-05-02T02:53:27.884Z,0
2018-05-02T02:53:54.009Z,0
2018-05-02T02:54:20.160Z,0
2018-05-02T02:54:46.360Z,0
2018-05-02T02:55:12.529Z,0
2018-05-02T02:55:38.622Z,0
2018-05-02T02:56:04.755Z,0
2018-05-02T02:56:30.918Z,0
2018-05-02T02:56:57.051Z,0
2018-05-02T02:57:23.205Z,0
2018-05-02T02:57:49.339Z,0
2018-05-02T02:58:15.499Z,0
2018-05-02T02:58:41.631Z,0
2018-05-02T02:59:07.769Z,0
2018-05-02T02:59:33.979Z,0
2018-05-02T03:00:00.116Z,0
2018-05-02T03:00:26.269Z,0
2018-05-02T03:00:52.422Z,0
2018-05-02T03:01:18.560Z,0
2018-05-02T03:01:44.697Z,0
2018-05-02T03:02:10.874Z,0
2018-05-02T03:02:37.029Z,0
2018-05-02T03:03:03.169Z,0
2018-05-02T03:03:29.327Z,0
2018-05-02T03:03:55.472Z,0
2018-05-02T03:04:21.611Z,0
2018-05-02T03:04:47.771Z,0
2018-05-02T03:05:13.931Z,0
2018-05-02T03:05:40.107Z,0
2018-05-02T03:06:06.265Z,0
2018-05-02T03:06:32.426Z,0
2018-05-02T03:06:58.595Z,0
2018-05-02T03:07:24.727Z,0
2018-05-02T03:07:50.885Z,0
2018-05-02T03:08:17.046Z,0
2018-05-02T03:08:43.176Z,0
2018-05-02T03:09:09.312Z,0
2018-05-02T03:09:35.449Z,0
2018-05-02T03:10:01.590Z,0
2018-05-02T03:10:27.746Z,0
2018-05-02T03:10:53.879Z,0
2018-05-02T03:11:20.036Z,0
2018-05-02T03:11:46.168Z,0
2018-05-02T03:12:12.327Z,0
2018-05-02T03:12:38.510Z,0
2018-05-02T03:13:04.671Z,0
2018-05-02T03:13:30.854Z,0
2018-05-02T03:13:57.017Z,0
2018-05-02T03:14:23.147Z,0
2018-05-02T03:14:49.294Z,0
2018-05-02T03:15:15.425Z,0
2018-05-02T03:15:41.563Z,0
2018-05-02T03:16:07.702Z,0
2018-05-02T03:16:33.859Z,0
2018-05-02T03:17:00.007Z,0
2018-05-02T03:17:26.136Z,0
2018-05-02T03:17:52.277Z,0
2018-05-02T03:18:18.412Z,0
2018-05-02T03:18:44.551Z,0
2018-05-02T03:19:10.688Z,0
2018-05-02T03:19:36.824Z,0
2018-05-02T03:20:03.038Z,4
2018-05-02T03:20:29.112Z,4
2018-05-02T03:20:55.251Z,4
2018-05-02T03:21:21.405Z,4
2018-05-02T03:21:47.540Z,4
2018-05-02T03:22:13.708Z,4
2018-05-02T03:22:39.840Z,0
2018-05-02T03:23:06.024Z,0
2018-05-02T03:23:32.150Z,0
2018-05-02T03:23:58.290Z,4
2018-05-02T03:24:24.428Z,4
2018-05-02T03:24:50.595Z,4
2018-05-02T03:25:16.810Z,4
2018-05-02T03:25:42.941Z,4
2018-05-02T03:26:09.110Z,4
2018-05-02T03:26:35.267Z,4
2018-05-02T03:27:01.471Z,4
2018-05-02T03:27:27.536Z,4
2018-05-02T03:27:53.664Z,8
2018-05-02T03:28:19.806Z,8
2018-05-02T03:28:45.934Z,4
2018-05-02T03:29:12.074Z,8
2018-05-02T03:29:38.206Z,8
2018-05-02T03:30:04.351Z,8
2018-05-02T03:30:30.510Z,8
2018-05-02T03:30:56.671Z,12
2018-05-02T03:31:22.858Z,8
2018-05-02T03:31:49.020Z,12
2018-05-02T03:32:15.199Z,8
2018-05-02T03:32:41.366Z,12
2018-05-02T03:33:07.499Z,16
2018-05-02T03:33:33.664Z,12
2018-05-02T03:33:59.818Z,12
2018-05-02T03:34:25.952Z,16
2018-05-02T03:34:52.092Z,16
2018-05-02T03:35:18.232Z,20
2018-05-02T03:35:44.365Z,20
2018-05-02T03:36:10.502Z,20
2018-05-02T03:36:36.661Z,24
2018-05-02T03:37:02.801Z,24
2018-05-02T03:37:28.928Z,24
2018-05-02T03:37:55.067Z,28
2018-05-02T03:38:21.228Z,28
2018-05-02T03:38:47.386Z,32
2018-05-02T03:39:13.521Z,32
2018-05-02T03:39:39.655Z,36
2018-05-02T03:40:05.817Z,40
2018-05-02T03:40:31.990Z,36
2018-05-02T03:40:58.137Z,40
2018-05-02T03:41:24.296Z,44
2018-05-02T03:41:50.432Z,48
2018-05-02T03:42:16.587Z,52
2018-05-02T03:42:42.723Z,52
2018-05-02T03:43:08.863Z,56
2018-05-02T03:43:34.993Z,60
2018-05-02T03:44:01.136Z,64
2018-05-02T03:44:27.272Z,68
2018-05-02T03:44:53.407Z,72
2018-05-02T03:45:19.569Z,76
2018-05-02T03:45:45.722Z,76
2018-05-02T03:46:11.857Z,84
2018-05-02T03:46:37.991Z,88
2018-05-02T03:47:04.158Z,92
2018-05-02T03:47:30.318Z,100
2018-05-02T03:47:56.448Z,104
2018-05-02T03:48:22.587Z,112
2018-05-02T03:48:48.718Z,116
2018-05-02T03:49:14.878Z,120
2018-05-02T03:49:41.016Z,128
2018-05-02T03:50:07.147Z,136
2018-05-02T03:50:33.336Z,140
2018-05-02T03:50:59.481Z,148
2018-05-02T03:51:25.618Z,152
2018-05-02T03:51:51.749Z,164
2018-05-02T03:52:17.887Z,172
2018-05-02T03:52:44.025Z,180
2018-05-02T03:53:10.175Z,184
2018-05-02T03:53:36.309Z,196
2018-05-02T03:54:02.455Z,204
2018-05-02T03:54:28.589Z,212
2018-05-02T03:54:54.730Z,220
2018-05-02T03:55:20.885Z,232
2018-05-02T03:55:47.021Z,240
2018-05-02T03:56:13.183Z,252
2018-05-02T03:56:39.321Z,260
2018-05-02T03:57:05.513Z,272
2018-05-02T03:57:31.649Z,280
2018-05-02T03:57:57.782Z,296
2018-05-02T03:58:23.913Z,304
2018-05-02T03:58:50.046Z,316
2018-05-02T03:59:16.180Z,328
2018-05-02T03:59:42.406Z,340
2018-05-02T04:00:08.457Z,356
2018-05-02T04:00:34.595Z,364
2018-05-02T04:01:00.732Z,380
2018-05-02T04:01:26.889Z,392
2018-05-02T04:01:53.046Z,408
2018-05-02T04:02:19.173Z,420
2018-05-02T04:02:45.314Z,436
2018-05-02T04:03:11.475Z,452
2018-05-02T04:03:37.632Z,464
2018-05-02T04:04:03.792Z,480
2018-05-02T04:04:29.951Z,496
2018-05-02T04:04:56.094Z,516
2018-05-02T04:05:22.224Z,528
2018-05-02T04:05:48.386Z,548
2018-05-02T04:06:14.524Z,568
2018-05-02T04:06:40.653Z,584
2018-05-02T04:07:06.847Z,600
2018-05-02T04:07:32.979Z,620
2018-05-02T04:07:59.120Z,640
2018-05-02T04:08:25.255Z,660
2018-05-02T04:08:51.398Z,680
2018-05-02T04:09:17.534Z,700
2018-05-02T04:09:43.672Z,716
2018-05-02T04:10:09.806Z,740
2018-05-02T04:10:35.966Z,760
2018-05-02T04:11:02.098Z,780
2018-05-02T04:11:28.242Z,804
2018-05-02T04:11:54.381Z,828
2018-05-02T04:12:20.517Z,848
2018-05-02T04:12:46.651Z,868
2018-05-02T04:13:12.806Z,892
2018-05-02T04:13:38.951Z,912
2018-05-02T04:14:05.107Z,936
2018-05-02T04:14:31.249Z,956
2018-05-02T04:14:57.412Z,984
2018-05-02T04:15:23.554Z,1008
2018-05-02T04:15:49.707Z,1028
2018-05-02T04:16:15.849Z,1052
2018-05-02T04:16:41.984Z,1076
2018-05-02T04:17:08.120Z,1104
2018-05-02T04:17:34.254Z,1128
2018-05-02T04:18:00.392Z,1152
2018-05-02T04:18:26.550Z,1176
2018-05-02T04:18:52.688Z,1204
2018-05-02T04:19:18.822Z,1228
2018-05-02T04:19:44.961Z,1252
2018-05-02T04:20:11.096Z,1276
2018-05-02T04:20:37.234Z,1304
2018-05-02T04:21:03.393Z,1328
2018-05-02T04:21:29.523Z,1356
2018-05-02T04:21:55.690Z,1384
2018-05-02T04:22:21.856Z,1408
2018-05-02T04:22:48.017Z,1436
2018-05-02T04:23:14.164Z,1464
2018-05-02T04:23:40.306Z,1492
2018-05-02T04:24:06.443Z,1516
2018-05-02T04:24:32.628Z,1548
2018-05-02T04:24:58.766Z,1576
2018-05-02T04:25:24.907Z,1604
2018-05-02T04:25:51.039Z,1632
2018-05-02T04:26:17.181Z,1660
2018-05-02T04:26:43.315Z,1692
2018-05-02T04:27:09.447Z,1716
2018-05-02T04:27:35.589Z,1744
2018-05-02T04:28:01.722Z,1776
2018-05-02T04:28:27.862Z,1804
2018-05-02T04:28:54.006Z,1836
2018-05-02T04:29:20.140Z,1860
2018-05-02T04:29:46.277Z,1892
2018-05-02T04:30:12.415Z,1924
2018-05-02T04:30:38.551Z,1956
2018-05-02T04:31:04.685Z,1984
2018-05-02T04:31:30.848Z,2016
2018-05-02T04:31:56.990Z,2040
2018-05-02T04:32:23.147Z,2076
2018-05-02T04:32:49.291Z,2108
2018-05-02T04:33:15.426Z,2136
2018-05-02T04:33:41.561Z,2168
2018-05-02T04:34:07.694Z,2196
2018-05-02T04:34:33.839Z,2228
2018-05-02T04:34:59.969Z,2256
2018-05-02T04:35:26.105Z,2288
2018-05-02T04:35:52.244Z,2320
2018-05-02T04:36:18.381Z,2348
2018-05-02T04:36:44.521Z,2380
2018-05-02T04:37:10.658Z,2408
2018-05-02T04:37:36.800Z,2436
2018-05-02T04:38:02.939Z,2468
2018-05-02T04:38:29.075Z,2500
2018-05-02T04:38:55.209Z,2528
2018-05-02T04:39:21.349Z,2560
2018-05-02T04:39:47.483Z,2584
2018-05-02T04:40:13.626Z,2616
2018-05-02T04:40:39.795Z,2644
2018-05-02T04:41:05.963Z,2676
2018-05-02T04:41:32.051Z,2708
2018-05-02T04:41:58.191Z,2740
2018-05-02T04:42:24.329Z,2768
2018-05-02T04:42:50.466Z,2800
2018-05-02T04:43:16.604Z,2832
2018-05-02T04:43:42.741Z,2864
2018-05-02T04:44:08.919Z,2892
2018-05-02T04:44:35.055Z,2924
2018-05-02T04:45:01.196Z,2956
2018-05-02T04:45:27.335Z,2984
2018-05-02T04:45:53.472Z,3016
2018-05-02T04:46:19.633Z,3044
2018-05-02T04:46:45.768Z,3072
2018-05-02T04:47:11.896Z,3104
2018-05-02T04:47:38.034Z,3132
2018-05-02T04:48:04.167Z,3164
2018-05-02T04:48:30.330Z,3196
2018-05-02T04:48:56.466Z,3228
2018-05-02T04:49:22.602Z,3260
2018-05-02T04:49:48.733Z,3288
2018-05-02T04:50:14.868Z,3320
2018-05-02T04:50:41.015Z,3356
2018-05-02T04:51:07.166Z,3388
2018-05-02T04:51:33.310Z,3420
2018-05-02T04:51:59.445Z,3452
2018-05-02T04:52:25.578Z,3488
2018-05-02T04:52:51.736Z,3524
2018-05-02T04:53:17.889Z,3556
2018-05-02T04:53:44.032Z,3592
2018-05-02T04:54:10.163Z,3620
2018-05-02T04:54:36.304Z,3656
2018-05-02T04:55:02.441Z,3684
2018-05-02T04:55:28.630Z,3720
2018-05-02T04:55:54.761Z,3752
2018-05-02T04:56:20.899Z,3784
2018-05-02T04:56:47.038Z,3812
2018-05-02T04:57:13.181Z,3844
2018-05-02T04:57:39.340Z,3872
2018-05-02T04:58:05.476Z,3900
2018-05-02T04:58:31.610Z,3936
2018-05-02T04:58:57.744Z,3964
2018-05-02T04:59:23.890Z,4000
2018-05-02T04:59:50.039Z,4028
2018-05-02T05:00:16.176Z,4064
2018-05-02T05:00:42.316Z,4092
2018-05-02T05:01:08.446Z,4124
2018-05-02T05:01:34.590Z,4160
2018-05-02T05:02:00.724Z,4188
2018-05-02T05:02:26.855Z,4224
2018-05-02T05:02:52.996Z,4256
2018-05-02T05:03:19.129Z,4284
2018-05-02T05:03:45.260Z,4312
2018-05-02T05:04:11.424Z,4340
2018-05-02T05:04:37.612Z,4364
2018-05-02T05:05:03.771Z,4384
2018-05-02T05:05:29.913Z,4408
2018-05-02T05:05:56.049Z,4432
2018-05-02T05:06:22.189Z,4456
2018-05-02T05:06:48.335Z,4476
2018-05-02T05:07:14.499Z,4508
2018-05-02T05:07:40.631Z,4532
2018-05-02T05:08:06.771Z,4560
2018-05-02T05:08:32.933Z,4592
2018-05-02T05:08:59.065Z,4624
2018-05-02T05:09:25.198Z,4648
2018-05-02T05:09:51.339Z,4676
2018-05-02T05:10:17.479Z,4704
2018-05-02T05:10:43.619Z,4740
2018-05-02T05:11:09.761Z,4768
2018-05-02T05:11:35.892Z,4800
2018-05-02T05:12:02.047Z,4824
2018-05-02T05:12:28.181Z,4860
2018-05-02T05:12:54.323Z,4884
2018-05-02T05:13:20.451Z,4908
2018-05-02T05:13:46.590Z,4944
2018-05-02T05:14:12.732Z,4980
2018-05-02T05:14:38.867Z,5012
2018-05-02T05:15:05.005Z,5040
2018-05-02T05:15:31.165Z,5068
2018-05-02T05:15:57.308Z,5096
2018-05-02T05:16:23.449Z,5124
2018-05-02T05:16:49.581Z,5156
2018-05-02T05:17:15.765Z,5172
2018-05-02T05:17:41.905Z,5204
2018-05-02T05:18:08.046Z,5232
2018-05-02T05:18:34.179Z,5260
2018-05-02T05:19:00.321Z,5292
2018-05-02T05:19:26.482Z,5312
2018-05-02T05:19:52.709Z,5340
2018-05-02T05:20:18.769Z,5356
2018-05-02T05:20:44.910Z,5380
2018-05-02T05:21:11.051Z,5404
2018-05-02T05:21:37.191Z,5428
2018-05-02T05:22:03.323Z,5456
2018-05-02T05:22:29.476Z,5480
2018-05-02T05:22:55.641Z,5508
2018-05-02T05:23:21.780Z,5528
2018-05-02T05:23:47.914Z,5556
2018-05-02T05:24:14.079Z,5576
2018-05-02T05:24:40.246Z,5592
2018-05-02T05:25:06.379Z,5624
2018-05-02T05:25:32.575Z,5648
2018-05-02T05:25:58.728Z,5672
2018-05-02T05:26:24.862Z,5696
2018-05-02T05:26:51.022Z,5716
2018-05-02T05:27:17.154Z,5740
2018-05-02T05:27:43.302Z,5752
2018-05-02T05:28:09.470Z,5780
2018-05-02T05:28:35.624Z,5800
2018-05-02T05:29:01.760Z,5816
2018-05-02T05:29:27.906Z,5832
2018-05-02T05:29:54.057Z,5852
2018-05-02T05:30:20.204Z,5872
2018-05-02T05:30:46.344Z,5892
2018-05-02T05:31:12.478Z,5908
2018-05-02T05:31:38.609Z,5932
2018-05-02T05:32:04.781Z,5952
2018-05-02T05:32:30.919Z,5964
2018-05-02T05:32:57.065Z,5988
2018-05-02T05:33:23.251Z,6008
2018-05-02T05:33:49.396Z,6028
2018-05-02T05:34:15.528Z,6048
2018-05-02T05:34:41.679Z,6076
2018-05-02T05:35:07.822Z,6096
2018-05-02T05:35:34.011Z,6112
2018-05-02T05:36:00.144Z,6136
2018-05-02T05:36:26.304Z,6160
2018-05-02T05:36:52.472Z,6184
2018-05-02T05:37:18.613Z,6204
2018-05-02T05:37:44.743Z,6228
2018-05-02T05:38:10.885Z,6252
2018-05-02T05:38:37.035Z,6272
2018-05-02T05:39:03.164Z,6292
2018-05-02T05:39:29.298Z,6324
2018-05-02T05:39:55.442Z,6348
2018-05-02T05:40:21.581Z,6376
2018-05-02T05:40:47.744Z,6412
2018-05-02T05:41:13.873Z,6436
2018-05-02T05:41:40.011Z,6464
2018-05-02T05:42:06.146Z,6496
2018-05-02T05:42:32.273Z,6532
2018-05-02T05:42:58.416Z,6564
2018-05-02T05:43:24.556Z,6588
2018-05-02T05:43:50.724Z,6616
2018-05-02T05:44:16.872Z,6648
2018-05-02T05:44:43.032Z,6672
2018-05-02T05:45:09.157Z,6688
2018-05-02T05:45:35.318Z,6716
2018-05-02T05:46:01.473Z,6736
2018-05-02T05:46:27.620Z,6760
2018-05-02T05:46:53.756Z,6784
2018-05-02T05:47:19.896Z,6800
2018-05-02T05:47:46.062Z,6816
2018-05-02T05:48:12.194Z,6848
2018-05-02T05:48:38.332Z,6872
2018-05-02T05:49:04.467Z,6892
2018-05-02T05:49:30.610Z,6924
2018-05-02T05:49:56.740Z,6948
2018-05-02T05:50:22.905Z,6972
2018-05-02T05:50:49.070Z,6996
2018-05-02T05:51:15.238Z,7024
2018-05-02T05:51:41.397Z,7052
2018-05-02T05:52:07.544Z,7084
2018-05-02T05:52:33.675Z,7108
2018-05-02T05:52:59.816Z,7140
2018-05-02T05:53:25.946Z,7168
2018-05-02T05:53:52.098Z,7200
2018-05-02T05:54:18.325Z,7228
2018-05-02T05:54:44.417Z,7260
2018-05-02T05:55:10.552Z,7288
2018-05-02T05:55:36.697Z,7300
2018-05-02T05:56:02.919Z,7328
2018-05-02T05:56:29.046Z,7380
2018-05-02T05:56:55.223Z,7416
2018-05-02T05:57:21.354Z,7424
2018-05-02T05:57:47.491Z,7436
2018-05-02T05:58:13.635Z,7456
2018-05-02T05:58:39.769Z,7468
2018-05-02T05:59:05.904Z,7484
2018-05-02T05:59:32.042Z,7504
2018-05-02T05:59:58.190Z,7524
2018-05-02T06:00:24.337Z,7552
2018-05-02T06:00:50.618Z,7584
2018-05-02T06:01:16.618Z,7604
2018-05-02T06:01:42.751Z,7616
2018-05-02T06:02:08.892Z,7640
2018-05-02T06:02:35.057Z,7672
2018-05-02T06:03:01.243Z,7712
2018-05-02T06:03:27.379Z,7748
2018-05-02T06:03:53.511Z,7776
2018-05-02T06:04:19.646Z,7804
2018-05-02T06:04:45.790Z,7832
2018-05-02T06:05:12.010Z,7852
2018-05-02T06:05:38.080Z,7860
2018-05-02T06:06:04.224Z,7880
2018-05-02T06:06:30.370Z,7904
2018-05-02T06:06:56.530Z,7924
2018-05-02T06:07:22.669Z,7952
2018-05-02T06:07:48.799Z,7968
2018-05-02T06:08:14.944Z,7992
2018-05-02T06:08:41.081Z,8020
2018-05-02T06:09:07.220Z,8032
2018-05-02T06:09:33.386Z,8056
2018-05-02T06:09:59.553Z,8084
2018-05-02T06:10:25.684Z,8096
2018-05-02T06:10:51.827Z,8116